sensor_id;sensor_type;location;lat;lon;timestamp;pressure;altitude;pressure_sealevel;temperature
76901;BMP280;65859;43.020;25.096;2023-06-26T00:00:57;98956.88;;;21.30
76901;BMP280;65859;43.020;25.096;2023-06-26T00:03:25;98964.22;;;21.87
76901;BMP280;65859;43.020;25.096;2023-06-26T00:05:51;98966.63;;;22.28
76901;BMP280;65859;43.020;25.096;2023-06-26T00:08:17;98966.69;;;22.48
76901;BMP280;65859;43.020;25.096;2023-06-26T00:10:43;98961.44;;;21.90
76901;BMP280;65859;43.020;25.096;2023-06-26T00:13:10;98962.75;;;21.25
76901;BMP280;65859;43.020;25.096;2023-06-26T00:15:38;98960.13;;;21.18
76901;BMP280;65859;43.020;25.096;2023-06-26T00:18:05;98956.75;;;21.41
76901;BMP280;65859;43.020;25.096;2023-06-26T00:20:31;98956.50;;;21.31
76901;BMP280;65859;43.020;25.096;2023-06-26T00:23:00;98950.78;;;20.92
76901;BMP280;65859;43.020;25.096;2023-06-26T00:25:26;98948.44;;;20.97
76901;BMP280;65859;43.020;25.096;2023-06-26T00:27:52;98950.47;;;21.20
76901;BMP280;65859;43.020;25.096;2023-06-26T00:30:19;98953.56;;;21.49
76901;BMP280;65859;43.020;25.096;2023-06-26T00:32:45;98955.13;;;21.47
76901;BMP280;65859;43.020;25.096;2023-06-26T00:35:13;98952.53;;;21.40
76901;BMP280;65859;43.020;25.096;2023-06-26T00:37:39;98944.75;;;21.15
76901;BMP280;65859;43.020;25.096;2023-06-26T00:40:06;98948.00;;;20.99
76901;BMP280;65859;43.020;25.096;2023-06-26T00:42:32;98943.50;;;20.89
76901;BMP280;65859;43.020;25.096;2023-06-26T00:44:58;98933.31;;;20.69
76901;BMP280;65859;43.020;25.096;2023-06-26T00:47:25;98936.91;;;20.93
76901;BMP280;65859;43.020;25.096;2023-06-26T00:49:52;98934.25;;;21.51
76901;BMP280;65859;43.020;25.096;2023-06-26T00:52:19;98936.53;;;21.79
76901;BMP280;65859;43.020;25.096;2023-06-26T00:54:45;98935.66;;;21.86
76901;BMP280;65859;43.020;25.096;2023-06-26T00:57:15;98938.22;;;21.43
76901;BMP280;65859;43.020;25.096;2023-06-26T00:59:41;98937.38;;;20.85
76901;BMP280;65859;43.020;25.096;2023-06-26T01:02:07;98930.06;;;21.19
76901;BMP280;65859;43.020;25.096;2023-06-26T01:04:34;98928.59;;;21.92
76901;BMP280;65859;43.020;25.096;2023-06-26T01:07:04;98926.66;;;22.16
76901;BMP280;65859;43.020;25.096;2023-06-26T01:09:34;98924.22;;;22.02
76901;BMP280;65859;43.020;25.096;2023-06-26T01:12:01;98919.34;;;21.93
76901;BMP280;65859;43.020;25.096;2023-06-26T01:14:27;98921.81;;;21.84
76901;BMP280;65859;43.020;25.096;2023-06-26T01:16:54;98920.09;;;21.93
76901;BMP280;65859;43.020;25.096;2023-06-26T01:19:26;98926.84;;;21.55
76901;BMP280;65859;43.020;25.096;2023-06-26T01:22:11;98924.38;;;21.10
76901;BMP280;65859;43.020;25.096;2023-06-26T01:24:47;98921.00;;;20.68
76901;BMP280;65859;43.020;25.096;2023-06-26T01:27:20;98920.16;;;20.71
76901;BMP280;65859;43.020;25.096;2023-06-26T01:29:49;98926.41;;;20.99
76901;BMP280;65859;43.020;25.096;2023-06-26T01:32:16;98923.84;;;20.88
76901;BMP280;65859;43.020;25.096;2023-06-26T01:34:43;98922.47;;;21.38
76901;BMP280;65859;43.020;25.096;2023-06-26T01:37:11;98920.53;;;21.65
76901;BMP280;65859;43.020;25.096;2023-06-26T01:39:37;98920.88;;;21.94
76901;BMP280;65859;43.020;25.096;2023-06-26T01:42:04;98915.41;;;21.97
76901;BMP280;65859;43.020;25.096;2023-06-26T01:44:35;98914.53;;;21.54
76901;BMP280;65859;43.020;25.096;2023-06-26T01:47:05;98923.28;;;21.04
76901;BMP280;65859;43.020;25.096;2023-06-26T01:58:02;98919.66;;;21.18
76901;BMP280;65859;43.020;25.096;2023-06-26T02:00:29;98924.38;;;21.10
76901;BMP280;65859;43.020;25.096;2023-06-26T02:02:57;98917.09;;;21.38
76901;BMP280;65859;43.020;25.096;2023-06-26T02:05:23;98915.94;;;21.89
76901;BMP280;65859;43.020;25.096;2023-06-26T02:07:51;98916.63;;;21.93
76901;BMP280;65859;43.020;25.096;2023-06-26T02:10:17;98917.28;;;22.01
76901;BMP280;65859;43.020;25.096;2023-06-26T02:12:43;98916.94;;;22.22
76901;BMP280;65859;43.020;25.096;2023-06-26T02:15:10;98916.75;;;22.09
76901;BMP280;65859;43.020;25.096;2023-06-26T02:17:36;98916.34;;;22.11
76901;BMP280;65859;43.020;25.096;2023-06-26T02:20:02;98911.91;;;22.20
76901;BMP280;65859;43.020;25.096;2023-06-26T02:22:29;98907.75;;;21.92
76901;BMP280;65859;43.020;25.096;2023-06-26T02:24:55;98909.78;;;21.61
76901;BMP280;65859;43.020;25.096;2023-06-26T02:27:21;98911.03;;;21.80
76901;BMP280;65859;43.020;25.096;2023-06-26T02:29:48;98909.16;;;21.77
76901;BMP280;65859;43.020;25.096;2023-06-26T02:32:14;98918.53;;;21.69
76901;BMP280;65859;43.020;25.096;2023-06-26T02:34:40;98917.22;;;21.54
76901;BMP280;65859;43.020;25.096;2023-06-26T02:37:07;98914.06;;;21.59
76901;BMP280;65859;43.020;25.096;2023-06-26T02:39:35;98911.69;;;21.38
76901;BMP280;65859;43.020;25.096;2023-06-26T02:42:01;98910.00;;;21.47
76901;BMP280;65859;43.020;25.096;2023-06-26T02:44:27;98906.09;;;20.91
76901;BMP280;65859;43.020;25.096;2023-06-26T02:46:54;98916.66;;;20.74
76901;BMP280;65859;43.020;25.096;2023-06-26T02:49:21;98916.19;;;21.17
76901;BMP280;65859;43.020;25.096;2023-06-26T02:51:47;98915.22;;;21.00
76901;BMP280;65859;43.020;25.096;2023-06-26T02:54:13;98909.81;;;21.00
76901;BMP280;65859;43.020;25.096;2023-06-26T02:56:39;98907.84;;;21.04
76901;BMP280;65859;43.020;25.096;2023-06-26T02:59:06;98902.72;;;20.83
76901;BMP280;65859;43.020;25.096;2023-06-26T03:01:32;98906.56;;;21.16
76901;BMP280;65859;43.020;25.096;2023-06-26T03:03:59;98907.09;;;20.70
76901;BMP280;65859;43.020;25.096;2023-06-26T03:06:27;98908.53;;;20.82
76901;BMP280;65859;43.020;25.096;2023-06-26T03:08:53;98911.88;;;21.23
76901;BMP280;65859;43.020;25.096;2023-06-26T03:11:21;98909.72;;;21.65
76901;BMP280;65859;43.020;25.096;2023-06-26T03:13:47;98910.88;;;21.67
76901;BMP280;65859;43.020;25.096;2023-06-26T03:16:14;98914.56;;;20.93
76901;BMP280;65859;43.020;25.096;2023-06-26T03:18:40;98919.31;;;20.78
76901;BMP280;65859;43.020;25.096;2023-06-26T03:21:08;98929.06;;;20.72
76901;BMP280;65859;43.020;25.096;2023-06-26T03:23:35;98921.91;;;20.89
76901;BMP280;65859;43.020;25.096;2023-06-26T03:26:01;98919.13;;;20.96
76901;BMP280;65859;43.020;25.096;2023-06-26T03:28:27;98929.41;;;21.39
76901;BMP280;65859;43.020;25.096;2023-06-26T03:30:53;98928.56;;;21.68
76901;BMP280;65859;43.020;25.096;2023-06-26T03:33:20;98934.13;;;21.58
76901;BMP280;65859;43.020;25.096;2023-06-26T03:35:46;98929.78;;;21.10
76901;BMP280;65859;43.020;25.096;2023-06-26T03:38:12;98927.38;;;21.19
76901;BMP280;65859;43.020;25.096;2023-06-26T03:40:39;98929.31;;;21.46
76901;BMP280;65859;43.020;25.096;2023-06-26T03:43:07;98923.94;;;21.69
76901;BMP280;65859;43.020;25.096;2023-06-26T03:45:33;98916.06;;;21.82
76901;BMP280;65859;43.020;25.096;2023-06-26T03:47:59;98923.50;;;21.17
76901;BMP280;65859;43.020;25.096;2023-06-26T03:50:26;98920.44;;;21.45
76901;BMP280;65859;43.020;25.096;2023-06-26T03:52:52;98918.75;;;21.55
76901;BMP280;65859;43.020;25.096;2023-06-26T03:55:20;98918.22;;;21.67
76901;BMP280;65859;43.020;25.096;2023-06-26T03:57:48;98919.88;;;22.08
76901;BMP280;65859;43.020;25.096;2023-06-26T04:00:15;98916.69;;;22.13
76901;BMP280;65859;43.020;25.096;2023-06-26T04:02:41;98917.63;;;22.03
76901;BMP280;65859;43.020;25.096;2023-06-26T04:05:08;98919.19;;;22.04
76901;BMP280;65859;43.020;25.096;2023-06-26T04:07:34;98918.22;;;21.90
76901;BMP280;65859;43.020;25.096;2023-06-26T04:10:02;98911.25;;;21.12
76901;BMP280;65859;43.020;25.096;2023-06-26T04:12:28;98918.31;;;20.99
76901;BMP280;65859;43.020;25.096;2023-06-26T04:14:56;98915.63;;;20.68
76901;BMP280;65859;43.020;25.096;2023-06-26T04:17:22;98923.78;;;20.58
76901;BMP280;65859;43.020;25.096;2023-06-26T04:19:48;98924.97;;;20.91
76901;BMP280;65859;43.020;25.096;2023-06-26T04:22:14;98933.19;;;21.14
76901;BMP280;65859;43.020;25.096;2023-06-26T04:24:41;98927.84;;;20.77
76901;BMP280;65859;43.020;25.096;2023-06-26T04:27:07;98932.75;;;20.85
76901;BMP280;65859;43.020;25.096;2023-06-26T04:29:33;98921.19;;;20.85
76901;BMP280;65859;43.020;25.096;2023-06-26T04:32:00;98933.00;;;21.28
76901;BMP280;65859;43.020;25.096;2023-06-26T04:34:27;98934.91;;;21.31
76901;BMP280;65859;43.020;25.096;2023-06-26T04:36:54;98940.31;;;21.31
76901;BMP280;65859;43.020;25.096;2023-06-26T04:39:20;98942.16;;;21.88
76901;BMP280;65859;43.020;25.096;2023-06-26T04:41:46;98945.19;;;22.17
76901;BMP280;65859;43.020;25.096;2023-06-26T04:44:13;98951.00;;;22.16
76901;BMP280;65859;43.020;25.096;2023-06-26T04:46:40;98952.41;;;22.24
76901;BMP280;65859;43.020;25.096;2023-06-26T04:49:10;98949.00;;;21.96
76901;BMP280;65859;43.020;25.096;2023-06-26T04:51:36;98955.94;;;22.21
76901;BMP280;65859;43.020;25.096;2023-06-26T04:54:11;98955.31;;;22.37
76901;BMP280;65859;43.020;25.096;2023-06-26T04:56:38;98953.34;;;22.37
76901;BMP280;65859;43.020;25.096;2023-06-26T04:59:06;98949.00;;;21.96
76901;BMP280;65859;43.020;25.096;2023-06-26T05:01:32;98958.19;;;21.49
76901;BMP280;65859;43.020;25.096;2023-06-26T05:04:01;98961.00;;;21.92
76901;BMP280;65859;43.020;25.096;2023-06-26T05:06:28;98968.69;;;22.20
76901;BMP280;65859;43.020;25.096;2023-06-26T05:08:54;98968.38;;;22.18
76901;BMP280;65859;43.020;25.096;2023-06-26T05:11:21;98971.31;;;22.24
76901;BMP280;65859;43.020;25.096;2023-06-26T05:13:49;98974.47;;;22.22
76901;BMP280;65859;43.020;25.096;2023-06-26T05:16:15;98973.75;;;22.42
76901;BMP280;65859;43.020;25.096;2023-06-26T05:18:43;98974.44;;;22.46
76901;BMP280;65859;43.020;25.096;2023-06-26T05:21:09;98977.94;;;22.23
76901;BMP280;65859;43.020;25.096;2023-06-26T05:23:36;98979.56;;;22.40
76901;BMP280;65859;43.020;25.096;2023-06-26T05:26:03;98976.38;;;21.98
76901;BMP280;65859;43.020;25.096;2023-06-26T05:28:30;98979.88;;;22.22
76901;BMP280;65859;43.020;25.096;2023-06-26T05:30:59;98981.44;;;21.96
76901;BMP280;65859;43.020;25.096;2023-06-26T05:33:26;98985.50;;;21.81
76901;BMP280;65859;43.020;25.096;2023-06-26T05:35:53;98979.28;;;21.84
76901;BMP280;65859;43.020;25.096;2023-06-26T05:38:20;98981.03;;;21.98
76901;BMP280;65859;43.020;25.096;2023-06-26T05:40:47;98982.63;;;21.92
76901;BMP280;65859;43.020;25.096;2023-06-26T05:43:13;98987.59;;;21.97
76901;BMP280;65859;43.020;25.096;2023-06-26T05:45:40;98984.06;;;22.04
76901;BMP280;65859;43.020;25.096;2023-06-26T05:48:07;98986.38;;;22.25
76901;BMP280;65859;43.020;25.096;2023-06-26T05:50:35;98987.81;;;22.33
76901;BMP280;65859;43.020;25.096;2023-06-26T05:53:02;98986.91;;;22.16
76901;BMP280;65859;43.020;25.096;2023-06-26T05:55:31;98985.06;;;21.86
76901;BMP280;65859;43.020;25.096;2023-06-26T05:57:58;98992.06;;;21.84
76901;BMP280;65859;43.020;25.096;2023-06-26T06:00:26;98985.88;;;21.83
76901;BMP280;65859;43.020;25.096;2023-06-26T06:02:53;98986.03;;;21.99
76901;BMP280;65859;43.020;25.096;2023-06-26T06:05:23;98991.06;;;22.21
76901;BMP280;65859;43.020;25.096;2023-06-26T06:07:50;98989.47;;;22.00
76901;BMP280;65859;43.020;25.096;2023-06-26T06:10:16;98990.09;;;22.11
76901;BMP280;65859;43.020;25.096;2023-06-26T06:12:43;98994.00;;;22.07
76901;BMP280;65859;43.020;25.096;2023-06-26T06:15:09;98990.34;;;21.93
76901;BMP280;65859;43.020;25.096;2023-06-26T06:17:35;98994.16;;;21.96
76901;BMP280;65859;43.020;25.096;2023-06-26T06:20:02;98987.50;;;22.27
76901;BMP280;65859;43.020;25.096;2023-06-26T06:22:30;98996.22;;;22.15
76901;BMP280;65859;43.020;25.096;2023-06-26T06:24:57;98997.56;;;22.50
76901;BMP280;65859;43.020;25.096;2023-06-26T06:27:23;98990.91;;;22.31
76901;BMP280;65859;43.020;25.096;2023-06-26T06:29:49;98996.75;;;22.30
76901;BMP280;65859;43.020;25.096;2023-06-26T06:32:16;98990.59;;;22.03
76901;BMP280;65859;43.020;25.096;2023-06-26T06:34:42;98992.81;;;22.11
76901;BMP280;65859;43.020;25.096;2023-06-26T06:37:08;98983.25;;;22.50
76901;BMP280;65859;43.020;25.096;2023-06-26T06:39:35;98989.72;;;22.33
76901;BMP280;65859;43.020;25.096;2023-06-26T06:42:01;98975.88;;;22.07
76901;BMP280;65859;43.020;25.096;2023-06-26T06:44:28;98982.09;;;22.27
76901;BMP280;65859;43.020;25.096;2023-06-26T06:46:56;98991.41;;;22.26
76901;BMP280;65859;43.020;25.096;2023-06-26T06:49:22;98992.69;;;22.42
76901;BMP280;65859;43.020;25.096;2023-06-26T06:51:49;98984.25;;;22.36
76901;BMP280;65859;43.020;25.096;2023-06-26T06:54:18;98992.03;;;22.34
76901;BMP280;65859;43.020;25.096;2023-06-26T06:56:45;98991.78;;;22.25
76901;BMP280;65859;43.020;25.096;2023-06-26T06:59:11;98990.88;;;22.35
76901;BMP280;65859;43.020;25.096;2023-06-26T07:01:39;98988.34;;;22.68
76901;BMP280;65859;43.020;25.096;2023-06-26T07:04:06;98992.63;;;22.88
76901;BMP280;65859;43.020;25.096;2023-06-26T07:06:32;98996.69;;;22.97
76901;BMP280;65859;43.020;25.096;2023-06-26T07:08:58;98998.28;;;22.94
76901;BMP280;65859;43.020;25.096;2023-06-26T07:11:24;98994.22;;;23.42
76901;BMP280;65859;43.020;25.096;2023-06-26T07:13:51;98991.22;;;23.72
76901;BMP280;65859;43.020;25.096;2023-06-26T07:16:17;98996.84;;;23.81
76901;BMP280;65859;43.020;25.096;2023-06-26T07:18:44;99003.25;;;24.20
76901;BMP280;65859;43.020;25.096;2023-06-26T07:21:10;98993.78;;;23.79
76901;BMP280;65859;43.020;25.096;2023-06-26T07:23:37;98994.63;;;23.92
76901;BMP280;65859;43.020;25.096;2023-06-26T07:26:04;99000.16;;;23.53
76901;BMP280;65859;43.020;25.096;2023-06-26T07:28:30;99004.53;;;23.67
76901;BMP280;65859;43.020;25.096;2023-06-26T07:30:57;98997.91;;;23.51
76901;BMP280;65859;43.020;25.096;2023-06-26T07:33:23;99000.69;;;23.48
76901;BMP280;65859;43.020;25.096;2023-06-26T07:35:49;98996.81;;;23.09
76901;BMP280;65859;43.020;25.096;2023-06-26T07:38:15;99005.84;;;23.22
76901;BMP280;65859;43.020;25.096;2023-06-26T07:40:42;99006.78;;;23.52
76901;BMP280;65859;43.020;25.096;2023-06-26T07:43:08;99008.09;;;22.88
76901;BMP280;65859;43.020;25.096;2023-06-26T07:45:34;99018.91;;;23.08
76901;BMP280;65859;43.020;25.096;2023-06-26T07:48:00;99018.41;;;23.13
76901;BMP280;65859;43.020;25.096;2023-06-26T07:50:27;99011.81;;;22.94
76901;BMP280;65859;43.020;25.096;2023-06-26T07:52:53;99009.47;;;22.96
76901;BMP280;65859;43.020;25.096;2023-06-26T07:55:19;99012.22;;;23.12
76901;BMP280;65859;43.020;25.096;2023-06-26T07:57:47;99025.44;;;23.10
76901;BMP280;65859;43.020;25.096;2023-06-26T08:00:13;99021.50;;;23.15
76901;BMP280;65859;43.020;25.096;2023-06-26T08:02:40;99031.44;;;23.38
76901;BMP280;65859;43.020;25.096;2023-06-26T08:05:06;99028.22;;;23.63
76901;BMP280;65859;43.020;25.096;2023-06-26T08:07:32;99023.72;;;23.56
76901;BMP280;65859;43.020;25.096;2023-06-26T08:09:59;99032.75;;;22.70
76901;BMP280;65859;43.020;25.096;2023-06-26T08:12:25;99039.19;;;22.33
76901;BMP280;65859;43.020;25.096;2023-06-26T08:14:51;99038.31;;;22.13
76901;BMP280;65859;43.020;25.096;2023-06-26T08:17:18;99034.47;;;22.37
76901;BMP280;65859;43.020;25.096;2023-06-26T08:19:44;99038.59;;;22.22
76901;BMP280;65859;43.020;25.096;2023-06-26T08:22:10;99033.88;;;22.49
76901;BMP280;65859;43.020;25.096;2023-06-26T08:24:36;99032.88;;;22.63
76901;BMP280;65859;43.020;25.096;2023-06-26T08:27:03;99035.41;;;22.27
76901;BMP280;65859;43.020;25.096;2023-06-26T08:29:31;99033.78;;;22.33
76901;BMP280;65859;43.020;25.096;2023-06-26T08:31:57;99036.72;;;21.88
76901;BMP280;65859;43.020;25.096;2023-06-26T08:34:24;99046.50;;;22.09
76901;BMP280;65859;43.020;25.096;2023-06-26T08:36:50;99038.88;;;22.27
76901;BMP280;65859;43.020;25.096;2023-06-26T08:39:17;99036.53;;;22.29
76901;BMP280;65859;43.020;25.096;2023-06-26T08:41:43;99038.81;;;21.77
76901;BMP280;65859;43.020;25.096;2023-06-26T08:44:09;99038.06;;;22.30
76901;BMP280;65859;43.020;25.096;2023-06-26T08:46:36;99042.28;;;22.55
76901;BMP280;65859;43.020;25.096;2023-06-26T08:49:34;99058.59;;;22.51
76901;BMP280;65859;43.020;25.096;2023-06-26T08:52:28;99052.66;;;23.43
76901;BMP280;65859;43.020;25.096;2023-06-26T08:54:59;99058.44;;;23.61
76901;BMP280;65859;43.020;25.096;2023-06-26T08:57:28;99043.97;;;23.12
76901;BMP280;65859;43.020;25.096;2023-06-26T08:59:57;99047.72;;;25.51
76901;BMP280;65859;43.020;25.096;2023-06-26T09:02:24;99043.06;;;25.64
76901;BMP280;65859;43.020;25.096;2023-06-26T09:04:51;99033.84;;;25.49
76901;BMP280;65859;43.020;25.096;2023-06-26T09:07:17;99036.03;;;25.67
76901;BMP280;65859;43.020;25.096;2023-06-26T09:09:44;99039.78;;;25.31
76901;BMP280;65859;43.020;25.096;2023-06-26T09:12:11;99042.38;;;23.86
76901;BMP280;65859;43.020;25.096;2023-06-26T09:14:37;99043.00;;;25.01
76901;BMP280;65859;43.020;25.096;2023-06-26T09:17:04;99043.34;;;26.17
76901;BMP280;65859;43.020;25.096;2023-06-26T09:19:30;99036.78;;;25.67
76901;BMP280;65859;43.020;25.096;2023-06-26T09:21:57;99031.72;;;25.02
76901;BMP280;65859;43.020;25.096;2023-06-26T09:24:24;99041.34;;;25.70
76901;BMP280;65859;43.020;25.096;2023-06-26T09:26:51;99035.88;;;25.96
76901;BMP280;65859;43.020;25.096;2023-06-26T09:29:18;99031.00;;;25.90
76901;BMP280;65859;43.020;25.096;2023-06-26T09:31:47;99037.56;;;26.49
76901;BMP280;65859;43.020;25.096;2023-06-26T09:34:13;99031.34;;;25.67
76901;BMP280;65859;43.020;25.096;2023-06-26T09:36:40;99034.75;;;26.06
76901;BMP280;65859;43.020;25.096;2023-06-26T09:39:09;99041.44;;;24.87
76901;BMP280;65859;43.020;25.096;2023-06-26T09:41:38;99041.06;;;26.72
76901;BMP280;65859;43.020;25.096;2023-06-26T09:44:05;99032.69;;;27.19
76901;BMP280;65859;43.020;25.096;2023-06-26T09:46:31;99036.09;;;27.01
76901;BMP280;65859;43.020;25.096;2023-06-26T09:51:32;99043.69;;;27.37
76901;BMP280;65859;43.020;25.096;2023-06-26T09:54:02;99044.56;;;26.50
76901;BMP280;65859;43.020;25.096;2023-06-26T09:56:29;99040.69;;;27.93
76901;BMP280;65859;43.020;25.096;2023-06-26T09:58:57;99045.84;;;28.28
76901;BMP280;65859;43.020;25.096;2023-06-26T10:01:27;99038.91;;;27.50
76901;BMP280;65859;43.020;25.096;2023-06-26T10:03:55;99042.19;;;28.04
76901;BMP280;65859;43.020;25.096;2023-06-26T10:06:31;99037.28;;;29.32
76901;BMP280;65859;43.020;25.096;2023-06-26T10:09:00;99037.28;;;28.90
76901;BMP280;65859;43.020;25.096;2023-06-26T10:14:12;99029.19;;;29.38
76901;BMP280;65859;43.020;25.096;2023-06-26T10:16:40;99027.41;;;27.55
76901;BMP280;65859;43.020;25.096;2023-06-26T10:19:09;99027.59;;;27.70
76901;BMP280;65859;43.020;25.096;2023-06-26T10:21:37;99017.81;;;27.42
76901;BMP280;65859;43.020;25.096;2023-06-26T10:24:07;99019.53;;;27.67
76901;BMP280;65859;43.020;25.096;2023-06-26T10:26:41;99012.63;;;28.39
76901;BMP280;65859;43.020;25.096;2023-06-26T10:29:08;99012.53;;;26.42
76901;BMP280;65859;43.020;25.096;2023-06-26T10:31:36;99004.94;;;27.02
76901;BMP280;65859;43.020;25.096;2023-06-26T10:34:05;99007.31;;;27.71
76901;BMP280;65859;43.020;25.096;2023-06-26T10:36:32;99000.94;;;27.25
76901;BMP280;65859;43.020;25.096;2023-06-26T10:39:05;98996.41;;;26.91
76901;BMP280;65859;43.020;25.096;2023-06-26T10:41:41;98986.88;;;26.08
76901;BMP280;65859;43.020;25.096;2023-06-26T10:44:11;98990.88;;;26.16
76901;BMP280;65859;43.020;25.096;2023-06-26T10:49:20;98971.81;;;24.80
76901;BMP280;65859;43.020;25.096;2023-06-26T10:51:50;98969.56;;;25.04
76901;BMP280;65859;43.020;25.096;2023-06-26T10:54:18;98975.66;;;25.59
76901;BMP280;65859;43.020;25.096;2023-06-26T10:56:50;98961.75;;;25.44
76901;BMP280;65859;43.020;25.096;2023-06-26T10:59:22;98971.84;;;25.06
76901;BMP280;65859;43.020;25.096;2023-06-26T11:01:56;98965.88;;;25.23
76901;BMP280;65859;43.020;25.096;2023-06-26T11:04:46;98965.09;;;25.61
76901;BMP280;65859;43.020;25.096;2023-06-26T11:07:26;98960.66;;;25.42
76901;BMP280;65859;43.020;25.096;2023-06-26T11:10:08;98953.09;;;26.18
76901;BMP280;65859;43.020;25.096;2023-06-26T11:15:05;98958.66;;;26.15
76901;BMP280;65859;43.020;25.096;2023-06-26T11:17:34;98954.50;;;25.88
76901;BMP280;65859;43.020;25.096;2023-06-26T11:20:01;98947.13;;;25.89
76901;BMP280;65859;43.020;25.096;2023-06-26T11:22:27;98946.44;;;25.25
76901;BMP280;65859;43.020;25.096;2023-06-26T11:24:54;98944.91;;;25.24
76901;BMP280;65859;43.020;25.096;2023-06-26T11:27:30;98937.91;;;25.61
76901;BMP280;65859;43.020;25.096;2023-06-26T11:29:56;98942.19;;;25.97
76901;BMP280;65859;43.020;25.096;2023-06-26T11:32:22;98948.28;;;25.15
76901;BMP280;65859;43.020;25.096;2023-06-26T11:34:49;98943.72;;;25.50
76901;BMP280;65859;43.020;25.096;2023-06-26T11:37:20;98939.25;;;25.56
76901;BMP280;65859;43.020;25.096;2023-06-26T11:39:46;98940.75;;;25.70
76901;BMP280;65859;43.020;25.096;2023-06-26T11:42:13;98940.19;;;25.75
76901;BMP280;65859;43.020;25.096;2023-06-26T11:44:43;98936.28;;;26.33
76901;BMP280;65859;43.020;25.096;2023-06-26T11:47:17;98940.81;;;25.79
76901;BMP280;65859;43.020;25.096;2023-06-26T11:49:48;98933.88;;;25.78
76901;BMP280;65859;43.020;25.096;2023-06-26T11:52:15;98934.28;;;25.89
76901;BMP280;65859;43.020;25.096;2023-06-26T11:54:42;98938.25;;;25.63
76901;BMP280;65859;43.020;25.096;2023-06-26T11:57:12;98931.19;;;25.40
76901;BMP280;65859;43.020;25.096;2023-06-26T11:59:40;98933.69;;;25.47
76901;BMP280;65859;43.020;25.096;2023-06-26T12:02:15;98927.16;;;25.70
76901;BMP280;65859;43.020;25.096;2023-06-26T12:04:43;98936.47;;;25.82
76901;BMP280;65859;43.020;25.096;2023-06-26T12:07:11;98931.09;;;26.04
76901;BMP280;65859;43.020;25.096;2023-06-26T12:09:41;98929.13;;;25.91
76901;BMP280;65859;43.020;25.096;2023-06-26T12:12:10;98930.97;;;25.95
76901;BMP280;65859;43.020;25.096;2023-06-26T12:14:36;98934.09;;;25.71
76901;BMP280;65859;43.020;25.096;2023-06-26T12:17:10;98933.94;;;26.00
76901;BMP280;65859;43.020;25.096;2023-06-26T12:19:38;98931.41;;;26.49
76901;BMP280;65859;43.020;25.096;2023-06-26T12:22:08;98933.97;;;26.31
76901;BMP280;65859;43.020;25.096;2023-06-26T12:24:37;98935.69;;;26.16
76901;BMP280;65859;43.020;25.096;2023-06-26T12:27:14;98937.13;;;26.08
76901;BMP280;65859;43.020;25.096;2023-06-26T12:29:45;98932.94;;;26.29
76901;BMP280;65859;43.020;25.096;2023-06-26T12:32:13;98936.22;;;26.45
76901;BMP280;65859;43.020;25.096;2023-06-26T12:34:41;98938.25;;;26.85
76901;BMP280;65859;43.020;25.096;2023-06-26T12:37:11;98941.16;;;26.60
76901;BMP280;65859;43.020;25.096;2023-06-26T12:42:21;98947.75;;;26.80
76901;BMP280;65859;43.020;25.096;2023-06-26T12:44:48;98950.63;;;26.77
76901;BMP280;65859;43.020;25.096;2023-06-26T12:47:23;98951.13;;;26.84
76901;BMP280;65859;43.020;25.096;2023-06-26T12:49:52;98967.16;;;25.82
76901;BMP280;65859;43.020;25.096;2023-06-26T12:52:20;98971.53;;;25.29
76901;BMP280;65859;43.020;25.096;2023-06-26T12:54:47;98965.56;;;25.47
76901;BMP280;65859;43.020;25.096;2023-06-26T12:57:17;98975.56;;;25.50
76901;BMP280;65859;43.020;25.096;2023-06-26T12:59:43;98983.91;;;25.17
76901;BMP280;65859;43.020;25.096;2023-06-26T13:02:09;99001.66;;;24.80
76901;BMP280;65859;43.020;25.096;2023-06-26T13:04:39;99015.66;;;24.50
76901;BMP280;65859;43.020;25.096;2023-06-26T13:07:06;99019.00;;;24.25
76901;BMP280;65859;43.020;25.096;2023-06-26T13:09:34;99010.31;;;24.17
76901;BMP280;65859;43.020;25.096;2023-06-26T13:12:03;99014.03;;;24.23
76901;BMP280;65859;43.020;25.096;2023-06-26T13:14:30;99001.50;;;23.81
76901;BMP280;65859;43.020;25.096;2023-06-26T13:16:56;98998.91;;;23.90
76901;BMP280;65859;43.020;25.096;2023-06-26T13:19:23;99005.22;;;23.87
76901;BMP280;65859;43.020;25.096;2023-06-26T13:21:49;99009.19;;;23.66
76901;BMP280;65859;43.020;25.096;2023-06-26T13:24:15;98985.75;;;23.40
76901;BMP280;65859;43.020;25.096;2023-06-26T13:26:42;98993.22;;;23.68
76901;BMP280;65859;43.020;25.096;2023-06-26T13:29:08;98987.28;;;23.57
76901;BMP280;65859;43.020;25.096;2023-06-26T13:31:34;99001.72;;;23.34
76901;BMP280;65859;43.020;25.096;2023-06-26T13:34:04;99008.00;;;23.83
76901;BMP280;65859;43.020;25.096;2023-06-26T13:36:31;99012.47;;;23.57
76901;BMP280;65859;43.020;25.096;2023-06-26T13:39:01;99015.47;;;23.79
76901;BMP280;65859;43.020;25.096;2023-06-26T13:41:27;99017.66;;;23.84
76901;BMP280;65859;43.020;25.096;2023-06-26T13:43:56;99007.19;;;23.50
76901;BMP280;65859;43.020;25.096;2023-06-26T13:46:22;99017.44;;;23.43
76901;BMP280;65859;43.020;25.096;2023-06-26T13:48:48;99022.22;;;24.04
76901;BMP280;65859;43.020;25.096;2023-06-26T13:51:14;99028.50;;;24.49
76901;BMP280;65859;43.020;25.096;2023-06-26T13:53:41;99037.03;;;24.48
76901;BMP280;65859;43.020;25.096;2023-06-26T13:56:10;99035.03;;;23.87
76901;BMP280;65859;43.020;25.096;2023-06-26T13:58:36;99040.53;;;23.83
76901;BMP280;65859;43.020;25.096;2023-06-26T14:01:04;99053.41;;;24.12
76901;BMP280;65859;43.020;25.096;2023-06-26T14:03:30;99060.09;;;24.07
76901;BMP280;65859;43.020;25.096;2023-06-26T14:05:57;99063.41;;;23.46
76901;BMP280;65859;43.020;25.096;2023-06-26T14:08:23;99080.69;;;24.05
76901;BMP280;65859;43.020;25.096;2023-06-26T14:10:50;99072.28;;;23.67
76901;BMP280;65859;43.020;25.096;2023-06-26T14:13:16;99077.59;;;22.91
76901;BMP280;65859;43.020;25.096;2023-06-26T14:15:44;99074.81;;;22.75
76901;BMP280;65859;43.020;25.096;2023-06-26T14:18:10;99074.38;;;23.00
76901;BMP280;65859;43.020;25.096;2023-06-26T14:20:37;99083.16;;;22.37